Time;durP1;ratioP1;P1;durP2;ratioP2;P2;SDS_P1;SDS_P2;PMS_P1;PMS_P2;Temp;Humidity;BMP_temperature;BMP_pressure;BME280_temperature;BME280_humidity;BME280_pressure;Samples;Min_cycle;Max_cycle;Signal;HPM_P1;HPM_P2
2022/04/29 00:00:31;;;;;;;9.73;7.00;;;11.30;80.50;;;;;;4974840;28;20573;-69
2022/04/29 00:02:58;;;;;;;9.00;6.63;;;11.30;80.50;;;;;;4971024;28;20228;-69
2022/04/29 00:05:24;;;;;;;8.80;5.47;;;11.20;80.50;;;;;;4962594;28;20597;-69
2022/04/29 00:07:51;;;;;;;10.60;5.63;;;11.20;80.70;;;;;;4969497;28;20213;-68
2022/04/29 00:10:19;;;;;;;9.10;6.03;;;11.10;81.00;;;;;;4970982;28;20631;-69
2022/04/29 00:12:48;;;;;;;10.00;5.40;;;11.10;81.10;;;;;;4966609;28;20213;-68
2022/04/29 00:15:18;;;;;;;7.77;4.90;;;11.10;81.40;;;;;;4957975;28;20231;-68
2022/04/29 00:17:45;;;;;;;8.63;5.50;;;11.10;81.90;;;;;;4967271;28;20252;-71
2022/04/29 00:20:12;;;;;;;7.63;5.60;;;11.10;82.10;;;;;;4959431;28;20304;-70
2022/04/29 00:22:41;;;;;;;7.77;5.13;;;11.00;82.10;;;;;;4969669;28;20264;-72
2022/04/29 00:25:09;;;;;;;8.20;5.23;;;11.00;82.40;;;;;;4957409;28;20224;-71
2022/04/29 00:27:39;;;;;;;8.67;5.70;;;11.00;82.70;;;;;;4960895;28;20217;-70
2022/04/29 00:30:08;;;;;;;7.63;5.40;;;10.90;83.20;;;;;;4971500;28;20209;-71
2022/04/29 00:32:36;;;;;;;10.97;5.87;;;10.80;83.40;;;;;;4957428;28;20307;-70
2022/04/29 00:35:04;;;;;;;7.80;5.33;;;10.80;83.90;;;;;;4968456;28;20292;-70
2022/04/29 00:37:31;;;;;;;9.70;5.87;;;10.80;84.60;;;;;;4967042;28;20308;-70
2022/04/29 00:39:58;;;;;;;7.67;5.60;;;10.70;85.00;;;;;;4975911;28;20216;-70
2022/04/29 00:42:25;;;;;;;8.63;5.53;;;10.70;85.50;;;;;;4968804;28;20292;-71
2022/04/29 00:44:52;;;;;;;7.77;5.97;;;10.60;85.80;;;;;;4960610;28;20209;-70
2022/04/29 00:47:20;;;;;;;6.53;5.33;;;10.60;86.40;;;;;;4964621;28;20240;-70
2022/04/29 00:49:49;;;;;;;12.10;5.90;;;10.50;86.70;;;;;;4956807;28;20221;-70
2022/04/29 00:52:18;;;;;;;7.17;5.07;;;10.50;87.20;;;;;;4958228;28;20659;-71
2022/04/29 00:54:51;;;;;;;9.10;6.00;;;10.50;87.80;;;;;;4959496;28;20218;-71
2022/04/29 00:57:26;;;;;;;9.33;5.70;;;10.60;88.20;;;;;;4966652;28;20214;-70
2022/04/29 00:59:58;;;;;;;9.23;5.57;;;10.50;88.40;;;;;;4974582;28;20199;-70
2022/04/29 01:02:25;;;;;;;7.47;5.27;;;10.50;89.50;;;;;;4962834;28;20207;-70
2022/04/29 01:05:01;;;;;;;8.87;5.93;;;10.50;89.20;;;;;;4970545;28;20244;-70
2022/04/29 01:07:28;;;;;;;8.13;5.17;;;10.50;89.60;;;;;;4961666;28;20251;-70
2022/04/29 01:09:55;;;;;;;10.80;5.37;;;10.50;89.90;;;;;;4972469;28;20734;-70
2022/04/29 01:12:24;;;;;;;7.17;5.17;;;10.50;90.10;;;;;;4975784;28;20277;-70
2022/04/29 01:14:53;;;;;;;8.63;5.50;;;10.50;90.30;;;;;;4960587;28;20296;-70
2022/04/29 01:17:20;;;;;;;8.70;5.17;;;10.50;90.50;;;;;;4956457;28;20212;-70
2022/04/29 01:19:47;;;;;;;8.50;5.33;;;10.50;90.70;;;;;;4959282;28;20541;-70
2022/04/29 01:22:15;;;;;;;9.70;5.47;;;10.50;90.80;;;;;;4960307;28;20682;-70
2022/04/29 01:24:42;;;;;;;5.93;4.63;;;10.40;91.00;;;;;;4960695;28;20313;-70
2022/04/29 01:27:11;;;;;;;8.77;5.17;;;10.50;91.30;;;;;;4966995;28;20243;-71
2022/04/29 01:29:40;;;;;;;9.47;5.10;;;10.40;91.50;;;;;;4971307;28;20205;-70
2022/04/29 01:32:08;;;;;;;6.30;4.63;;;10.50;91.60;;;;;;4960657;28;20273;-71
2022/04/29 01:34:35;;;;;;;7.43;5.33;;;10.40;91.70;;;;;;4963213;28;20229;-71
2022/04/29 01:37:02;;;;;;;6.97;5.03;;;10.40;91.90;;;;;;4967434;28;20263;-71
2022/04/29 01:39:31;;;;;;;8.60;5.53;;;10.40;92.10;;;;;;4980177;28;20303;-70
2022/04/29 01:41:58;;;;;;;9.70;5.40;;;10.40;92.20;;;;;;4961652;28;20323;-71
2022/04/29 01:44:25;;;;;;;7.03;4.77;;;10.40;92.50;;;;;;4966262;28;20256;-71
2022/04/29 01:46:52;;;;;;;6.00;4.50;;;10.30;92.80;;;;;;4970493;28;20268;-71
2022/04/29 01:49:18;;;;;;;8.47;5.00;;;10.30;93.10;;;;;;4963806;28;20308;-71
2022/04/29 01:51:45;;;;;;;8.70;4.83;;;10.30;93.40;;;;;;4972713;28;20299;-71
2022/04/29 01:54:12;;;;;;;7.77;5.43;;;10.30;93.70;;;;;;4965672;28;20217;-71
2022/04/29 01:56:41;;;;;;;8.03;6.30;;;10.20;93.90;;;;;;4974183;28;20208;-71
2022/04/29 01:59:08;;;;;;;9.47;5.27;;;10.20;94.30;;;;;;4960483;28;20603;-71
2022/04/29 02:01:36;;;;;;;7.43;5.30;;;10.20;94.60;;;;;;4960746;28;20201;-71
2022/04/29 02:04:03;;;;;;;8.30;5.43;;;10.10;95.00;;;;;;4971849;28;20220;-71
2022/04/29 02:06:30;;;;;;;8.37;5.63;;;10.10;95.30;;;;;;4961171;28;20209;-70
2022/04/29 02:08:57;;;;;;;9.13;5.67;;;10.10;95.60;;;;;;4963938;28;20223;-71
2022/04/29 02:11:24;;;;;;;9.00;5.73;;;10.10;96.00;;;;;;4975271;28;20214;-71
2022/04/29 02:13:52;;;;;;;7.97;5.40;;;10.10;96.40;;;;;;4961102;28;20213;-71
2022/04/29 02:16:19;;;;;;;9.37;5.87;;;10.10;96.70;;;;;;4964311;28;20216;-71
2022/04/29 02:18:46;;;;;;;7.67;5.40;;;10.00;97.10;;;;;;4971093;28;20644;-70
2022/04/29 02:21:13;;;;;;;8.90;5.63;;;10.00;97.40;;;;;;4961840;28;20657;-71
2022/04/29 02:23:40;;;;;;;9.70;5.47;;;10.00;97.70;;;;;;4964990;28;20287;-72
2022/04/29 02:26:06;;;;;;;7.13;5.00;;;10.00;97.90;;;;;;4965057;28;20213;-71
2022/04/29 02:28:34;;;;;;;8.80;5.53;;;10.00;98.20;;;;;;4960655;28;20265;-71
2022/04/29 02:31:03;;;;;;;7.60;5.30;;;10.00;98.50;;;;;;4973182;28;20616;-70
2022/04/29 02:33:30;;;;;;;7.27;5.73;;;10.00;98.80;;;;;;4963408;28;20201;-70
2022/04/29 02:35:57;;;;;;;8.47;5.43;;;9.90;99.90;;;;;;4966461;28;20244;-71
2022/04/29 02:38:24;;;;;;;7.77;5.07;;;10.00;99.40;;;;;;4963463;28;20240;-70
2022/04/29 02:40:51;;;;;;;8.60;5.70;;;10.00;99.70;;;;;;4978819;28;20248;-71
2022/04/29 02:43:18;;;;;;;10.27;5.40;;;9.90;99.90;;;;;;4976281;28;20239;-70
2022/04/29 02:45:46;;;;;;;7.93;5.20;;;9.90;99.90;;;;;;4961233;28;20237;-71
2022/04/29 02:48:15;;;;;;;7.00;5.33;;;9.90;99.90;;;;;;4964278;28;20217;-71
2022/04/29 02:50:42;;;;;;;10.07;5.30;;;9.90;99.90;;;;;;4963000;28;20326;-71
2022/04/29 02:53:09;;;;;;;9.07;4.97;;;10.00;99.90;;;;;;4965943;28;20220;-70
2022/04/29 02:55:36;;;;;;;8.27;4.87;;;10.00;99.90;;;;;;4964872;28;20200;-71
2022/04/29 02:58:03;;;;;;;8.33;4.97;;;10.00;99.90;;;;;;4972557;28;20309;-71
2022/04/29 03:00:30;;;;;;;7.37;4.93;;;10.00;99.90;;;;;;4963874;28;20235;-71
2022/04/29 03:02:57;;;;;;;7.80;4.77;;;10.00;99.90;;;;;;4959302;28;20586;-71
2022/04/29 03:05:26;;;;;;;7.20;4.67;;;10.00;99.90;;;;;;4973141;28;20211;-70
2022/04/29 03:07:53;;;;;;;7.43;4.87;;;10.00;99.90;;;;;;4959730;28;20232;-70
2022/04/29 03:10:20;;;;;;;8.03;5.00;;;10.10;99.90;;;;;;4973668;28;20240;-70
2022/04/29 03:12:46;;;;;;;7.57;5.27;;;10.10;99.90;;;;;;4976648;28;20291;-72
2022/04/29 03:15:16;;;;;;;9.97;6.37;;;10.10;99.90;;;;;;4967592;28;20629;-71
2022/04/29 03:20:29;;;;;;;11.63;4.80;;;10.10;99.90;;;;;;4959387;28;20204;-71
2022/04/29 03:22:56;;;;;;;8.63;4.93;;;10.10;99.90;;;;;;4962576;28;20241;-71
2022/04/29 03:25:23;;;;;;;7.27;5.10;;;10.10;99.90;;;;;;4965857;28;20209;-70
2022/04/29 03:27:50;;;;;;;9.17;5.70;;;10.10;99.90;;;;;;4963294;28;20247;-70
2022/04/29 03:30:17;;;;;;;8.30;5.63;;;10.10;99.90;;;;;;4958483;28;20206;-71
2022/04/29 03:32:51;;;;;;;9.57;5.27;;;10.10;99.90;;;;;;4959330;28;20316;-70
2022/04/29 03:35:18;;;;;;;6.60;5.33;;;10.10;99.90;;;;;;4964034;28;20332;-71
2022/04/29 03:37:48;;;;;;;9.13;5.57;;;10.20;99.90;;;;;;4958305;28;20244;-71
2022/04/29 03:40:16;;;;;;;9.47;5.43;;;10.20;99.90;;;;;;4972151;28;20241;-71
2022/04/29 03:42:43;;;;;;;10.87;8.27;;;10.30;99.90;;;;;;4968943;28;20208;-70
2022/04/29 03:45:10;;;;;;;12.03;10.17;;;10.30;99.90;;;;;;4972873;28;20225;-70
2022/04/29 03:47:37;;;;;;;12.57;10.03;;;10.30;99.90;;;;;;4958666;28;20240;-70
2022/04/29 03:50:06;;;;;;;14.80;10.30;;;10.30;99.90;;;;;;4941466;28;20244;-71
2022/04/29 03:52:33;;;;;;;12.03;9.80;;;10.30;99.90;;;;;;4967051;28;20245;-70
2022/04/29 03:55:02;;;;;;;10.30;8.40;;;10.30;99.90;;;;;;4957780;28;20201;-70
2022/04/29 03:57:29;;;;;;;13.77;9.47;;;10.30;99.90;;;;;;4958244;28;20205;-71
2022/04/29 03:59:55;;;;;;;12.27;8.43;;;10.30;99.90;;;;;;4963733;28;20288;-71
2022/04/29 04:02:22;;;;;;;11.90;8.37;;;10.30;99.90;;;;;;4965641;28;20223;-71
2022/04/29 04:04:49;;;;;;;12.90;7.90;;;10.30;99.90;;;;;;4964263;28;20260;-71
2022/04/29 04:07:16;;;;;;;10.63;8.03;;;10.30;99.90;;;;;;4961671;28;20306;-72
2022/04/29 04:09:43;;;;;;;12.73;7.60;;;10.30;99.90;;;;;;4968980;28;20240;-72
2022/04/29 04:12:12;;;;;;;11.07;7.83;;;10.30;99.90;;;;;;4967125;28;20304;-70
2022/04/29 04:14:39;;;;;;;12.13;7.80;;;10.30;99.90;;;;;;4963587;28;20288;-71
2022/04/29 04:17:07;;;;;;;9.53;6.90;;;10.40;99.90;;;;;;4968552;28;20228;-70
2022/04/29 04:19:34;;;;;;;8.97;6.77;;;10.30;99.90;;;;;;4975002;28;20674;-70
2022/04/29 04:22:01;;;;;;;11.00;7.47;;;10.30;99.90;;;;;;4964736;28;20316;-70
2022/04/29 04:24:28;;;;;;;10.50;6.67;;;10.20;99.90;;;;;;4961479;28;20307;-71
2022/04/29 04:26:55;;;;;;;13.50;6.93;;;10.20;99.90;;;;;;4964648;28;20644;-71
2022/04/29 04:29:23;;;;;;;9.77;6.23;;;10.20;99.90;;;;;;4963473;28;20300;-70
2022/04/29 04:31:51;;;;;;;8.73;6.37;;;10.20;99.90;;;;;;4956892;28;20240;-71
2022/04/29 04:37:11;;;;;;;9.23;5.97;;;10.20;99.90;;;;;;4922030;28;20237;-70
2022/04/29 04:39:37;;;;;;;10.77;6.07;;;10.20;99.90;;;;;;4959000;28;20292;-69
2022/04/29 04:42:06;;;;;;;8.03;6.20;;;10.30;99.90;;;;;;4971416;28;20279;-70
2022/04/29 04:44:34;;;;;;;8.43;6.60;;;10.30;99.90;;;;;;4959860;28;20321;-70
2022/04/29 04:47:01;;;;;;;9.00;6.13;;;10.30;99.90;;;;;;4963716;28;20204;-70
2022/04/29 04:49:28;;;;;;;9.63;6.10;;;10.40;99.90;;;;;;4966234;28;20240;-71
2022/04/29 04:51:55;;;;;;;8.33;6.30;;;10.40;99.90;;;;;;4966993;28;20280;-71
2022/04/29 04:54:21;;;;;;;9.23;6.23;;;10.40;99.90;;;;;;4957827;28;20665;-70
2022/04/29 04:56:49;;;;;;;9.60;6.40;;;10.40;99.90;;;;;;4957933;28;20651;-71
2022/04/29 04:59:15;;;;;;;10.57;5.77;;;10.50;99.90;;;;;;4963853;28;20218;-71
2022/04/29 05:01:44;;;;;;;13.07;7.57;;;10.40;99.90;;;;;;4975282;28;20231;-70
2022/04/29 05:04:11;;;;;;;8.93;6.87;;;10.50;99.90;;;;;;4957269;28;20275;-70
2022/04/29 05:06:38;;;;;;;9.17;6.60;;;10.50;99.90;;;;;;4958946;28;20304;-71
2022/04/29 05:09:05;;;;;;;11.87;7.07;;;10.50;99.90;;;;;;4971305;28;20201;-71
2022/04/29 05:11:32;;;;;;;14.33;7.13;;;10.60;99.90;;;;;;4967367;28;20291;-70
2022/04/29 05:13:59;;;;;;;8.10;6.23;;;10.50;99.90;;;;;;4960406;28;20292;-70
2022/04/29 05:16:27;;;;;;;9.17;7.07;;;10.60;99.90;;;;;;4942304;29;20589;-70
2022/04/29 05:18:55;;;;;;;10.20;7.07;;;10.60;99.90;;;;;;4976993;28;20221;-71
2022/04/29 05:21:22;;;;;;;11.20;7.43;;;10.60;99.90;;;;;;4967755;28;20316;-71
2022/04/29 05:23:49;;;;;;;11.40;7.30;;;10.70;99.90;;;;;;4965256;28;20240;-71
2022/04/29 05:26:15;;;;;;;10.53;6.87;;;10.80;99.90;;;;;;4974228;28;20211;-71
2022/04/29 05:28:42;;;;;;;16.23;7.43;;;10.80;99.90;;;;;;4961478;28;20233;-72
2022/04/29 05:31:09;;;;;;;15.20;7.30;;;10.90;99.90;;;;;;4961407;28;20296;-71
2022/04/29 05:33:38;;;;;;;10.63;8.27;;;10.90;99.90;;;;;;4960610;28;20202;-72
2022/04/29 05:36:08;;;;;;;12.80;8.00;;;11.00;99.90;;;;;;4960195;28;20213;-71
2022/04/29 05:44:05;;;;;;;10.57;7.40;;;11.10;99.90;;;;;;4963213;28;20658;-71
2022/04/29 05:46:32;;;;;;;12.83;7.80;;;11.10;99.90;;;;;;4967505;28;20212;-72
2022/04/29 05:48:59;;;;;;;12.17;7.83;;;11.20;99.90;;;;;;4960602;28;20596;-71
2022/04/29 05:51:28;;;;;;;14.67;8.97;;;11.20;99.90;;;;;;4960956;28;20247;-71
2022/04/29 05:53:54;;;;;;;11.17;7.83;;;11.30;99.90;;;;;;4961602;28;20213;-71
2022/04/29 05:56:21;;;;;;;12.30;7.40;;;11.30;99.90;;;;;;4967891;28;20216;-71
2022/04/29 05:58:48;;;;;;;13.03;7.67;;;11.50;99.90;;;;;;4960496;28;20561;-71
2022/04/29 06:01:15;;;;;;;16.20;8.33;;;11.60;99.90;;;;;;4970647;28;20292;-71
2022/04/29 06:03:42;;;;;;;12.80;8.13;;;11.70;99.90;;;;;;4975201;28;20230;-71
2022/04/29 06:06:09;;;;;;;15.17;8.60;;;11.80;99.90;;;;;;4968121;28;20317;-72
2022/04/29 06:08:37;;;;;;;14.40;7.40;;;11.90;99.90;;;;;;4959761;28;20296;-70
2022/04/29 06:11:05;;;;;;;11.90;7.80;;;12.00;99.90;;;;;;4967576;28;20302;-71
2022/04/29 06:13:32;;;;;;;11.57;7.37;;;12.20;99.90;;;;;;4978653;28;20205;-70
2022/04/29 06:16:00;;;;;;;12.37;7.80;;;12.30;99.90;;;;;;4965623;28;20545;-71
2022/04/29 06:18:26;;;;;;;9.57;7.30;;;12.50;99.90;;;;;;4967436;28;20673;-72
2022/04/29 06:20:54;;;;;;;11.67;7.90;;;12.60;99.70;;;;;;4970483;28;20284;-71
2022/04/29 06:23:21;;;;;;;12.30;8.00;;;12.70;99.60;;;;;;4965868;28;20196;-71
2022/04/29 06:25:49;;;;;;;13.10;7.90;;;12.80;99.40;;;;;;4970986;28;20225;-71
2022/04/29 06:28:16;;;;;;;15.47;8.33;;;13.00;99.10;;;;;;4958044;28;20978;-72
2022/04/29 06:30:42;;;;;;;12.73;8.47;;;13.00;98.70;;;;;;4966749;28;20286;-72
2022/04/29 06:33:09;;;;;;;10.03;7.87;;;13.20;98.70;;;;;;4967794;28;20339;-70
2022/04/29 06:35:41;;;;;;;13.17;7.90;;;13.30;98.00;;;;;;4966359;28;20206;-71
2022/04/29 06:38:08;;;;;;;13.73;7.83;;;13.40;97.80;;;;;;4966608;28;20304;-71
2022/04/29 06:40:35;;;;;;;12.17;8.10;;;13.40;97.40;;;;;;4973674;28;20331;-70
2022/04/29 06:43:04;;;;;;;16.47;7.93;;;13.40;97.20;;;;;;4971715;28;20260;-71
2022/04/29 06:45:31;;;;;;;10.97;7.33;;;13.50;96.80;;;;;;4977657;28;20224;-71
2022/04/29 06:47:58;;;;;;;11.27;7.70;;;13.50;96.70;;;;;;4965842;28;20319;-73
2022/04/29 06:50:27;;;;;;;13.37;8.87;;;13.50;96.60;;;;;;4967345;28;20236;-72
2022/04/29 06:52:54;;;;;;;12.47;7.97;;;13.60;96.50;;;;;;4970453;28;20239;-71
2022/04/29 06:55:21;;;;;;;11.00;7.97;;;13.60;96.30;;;;;;4974651;28;20244;-70
2022/04/29 06:57:48;;;;;;;12.63;8.00;;;13.70;96.20;;;;;;4968919;28;20212;-71
2022/04/29 07:00:22;;;;;;;15.80;8.00;;;13.80;96.00;;;;;;4977464;28;20217;-71
2022/04/29 07:02:49;;;;;;;11.67;7.67;;;14.00;95.80;;;;;;4971138;28;20211;-70
2022/04/29 07:05:17;;;;;;;11.50;8.37;;;14.10;95.50;;;;;;4965797;28;20233;-71
2022/04/29 07:07:43;;;;;;;12.50;8.37;;;14.20;95.00;;;;;;4972543;28;20252;-72
2022/04/29 07:10:11;;;;;;;15.57;7.97;;;14.20;95.00;;;;;;4959672;28;20265;-73
2022/04/29 07:12:42;;;;;;;15.13;7.80;;;14.40;94.80;;;;;;4972779;28;20583;-70
2022/04/29 07:15:10;;;;;;;11.67;7.50;;;14.60;94.30;;;;;;4979147;28;20236;-74
2022/04/29 07:17:38;;;;;;;10.87;7.87;;;14.70;93.70;;;;;;4966310;28;20237;-69
2022/04/29 07:20:07;;;;;;;11.03;7.83;;;14.80;93.50;;;;;;4959838;28;20209;-71
2022/04/29 07:22:37;;;;;;;11.17;8.07;;;14.80;93.30;;;;;;4966336;28;20513;-71
2022/04/29 07:25:05;;;;;;;12.43;8.13;;;14.90;92.80;;;;;;4970472;28;20252;-71
2022/04/29 07:27:33;;;;;;;11.73;8.60;;;14.80;92.50;;;;;;4972356;28;20677;-73
2022/04/29 07:30:00;;;;;;;11.60;8.00;;;14.80;92.60;;;;;;4959323;28;20663;-70
2022/04/29 07:32:27;;;;;;;12.53;8.37;;;14.80;92.20;;;;;;4958685;28;20284;-71
2022/04/29 07:43:09;;;;;;;13.20;7.70;;;14.80;92.20;;;;;;4957335;28;20201;-71
2022/04/29 07:45:37;;;;;;;11.03;7.87;;;14.90;92.20;;;;;;4968593;28;20323;-69
2022/04/29 07:48:05;;;;;;;14.87;9.40;;;15.00;92.10;;;;;;4969811;28;20717;-71
2022/04/29 07:50:33;;;;;;;12.60;7.63;;;15.20;91.70;;;;;;4969545;28;20702;-73
2022/04/29 07:53:01;;;;;;;10.20;8.33;;;15.30;90.90;;;;;;4976333;28;20208;-71
2022/04/29 07:55:28;;;;;;;13.93;8.23;;;15.40;90.20;;;;;;4974516;28;20232;-72
2022/04/29 07:57:56;;;;;;;12.37;7.43;;;15.50;89.20;;;;;;4964566;28;20212;-73
2022/04/29 08:00:23;;;;;;;9.67;7.47;;;15.40;88.70;;;;;;4959888;28;20247;-70
2022/04/29 08:02:51;;;;;;;9.47;7.60;;;15.50;88.20;;;;;;4972423;28;20212;-70
2022/04/29 08:05:19;;;;;;;9.90;7.73;;;15.50;87.70;;;;;;4961260;28;20690;-70
2022/04/29 08:07:48;;;;;;;9.97;7.30;;;15.50;87.10;;;;;;4974031;28;20239;-72
2022/04/29 08:10:15;;;;;;;9.20;7.43;;;15.50;86.60;;;;;;4967484;28;20659;-71
2022/04/29 08:12:42;;;;;;;9.13;7.33;;;15.60;87.40;;;;;;4963487;28;20731;-72
2022/04/29 08:15:11;;;;;;;9.37;7.53;;;15.70;85.30;;;;;;4974862;28;20251;-71
2022/04/29 08:17:40;;;;;;;12.13;7.60;;;15.80;84.70;;;;;;4970305;28;20276;-71
2022/04/29 08:20:08;;;;;;;11.80;7.50;;;15.90;84.40;;;;;;4965258;28;20213;-70
2022/04/29 08:22:36;;;;;;;9.97;7.47;;;16.00;84.80;;;;;;4967734;28;20240;-72
2022/04/29 08:25:05;;;;;;;10.40;7.13;;;16.20;82.90;;;;;;4969074;28;20229;-71
2022/04/29 08:27:32;;;;;;;9.10;6.10;;;16.30;82.20;;;;;;4967578;28;20212;-71
2022/04/29 08:29:59;;;;;;;11.90;9.63;;;16.40;81.50;;;;;;4958695;28;20296;-71
2022/04/29 08:32:26;;;;;;;8.70;7.18;;;16.60;80.00;;;;;;4966278;28;20220;-71
2022/04/29 08:34:53;;;;;;;8.17;6.40;;;16.80;79.00;;;;;;4968343;28;20204;-70
2022/04/29 08:37:20;;;;;;;9.33;6.83;;;17.00;77.50;;;;;;4961241;28;20217;-71
2022/04/29 08:39:48;;;;;;;11.35;8.77;;;17.10;76.20;;;;;;4960101;28;20205;-71
2022/04/29 08:42:19;;;;;;;9.30;6.47;;;17.20;75.40;;;;;;4954965;28;20201;-71
2022/04/29 08:44:47;;;;;;;12.43;7.10;;;17.30;74.60;;;;;;4967289;28;20209;-70
2022/04/29 08:47:15;;;;;;;9.70;6.78;;;17.50;75.10;;;;;;4964155;28;20291;-72
2022/04/29 08:49:42;;;;;;;11.00;7.13;;;17.80;74.10;;;;;;4958071;28;20292;-71
2022/04/29 08:52:09;;;;;;;10.35;6.80;;;18.10;72.90;;;;;;4969545;28;20245;-72
2022/04/29 09:00:10;;;;;;;13.25;7.15;;;18.90;69.20;;;;;;4969441;28;21039;-69
2022/04/29 09:02:41;;;;;;;13.60;7.75;;;19.00;67.80;;;;;;4968540;28;20288;-71
2022/04/29 09:05:10;;;;;;;9.70;7.07;;;19.00;67.40;;;;;;4969327;28;20229;-69
2022/04/29 09:07:59;;;;;;;13.05;8.23;;;19.30;67.30;;;;;;4969493;28;20244;-70
2022/04/29 09:10:28;;;;;;;11.13;8.70;;;19.60;65.60;;;;;;4943456;28;20263;-70
2022/04/29 09:12:56;;;;;;;9.50;7.40;;;19.70;64.70;;;;;;4967969;28;20513;-70
2022/04/29 09:15:23;;;;;;;10.52;7.68;;;19.70;64.00;;;;;;4961161;28;20702;-70
2022/04/29 09:17:53;;;;;;;9.45;7.50;;;19.70;63.70;;;;;;4970550;28;20287;-71
2022/04/29 09:20:21;;;;;;;11.00;8.48;;;19.70;63.30;;;;;;4957815;28;20206;-70
2022/04/29 09:22:50;;;;;;;14.63;9.13;;;19.90;63.20;;;;;;4957104;28;20237;-71
2022/04/29 09:25:17;;;;;;;13.50;9.38;;;20.00;63.90;;;;;;4963222;28;20764;-71
2022/04/29 09:28:02;;;;;;;12.68;9.00;;;20.00;64.30;;;;;;4963798;28;20208;-70
2022/04/29 09:30:38;;;;;;;15.50;9.30;;;19.90;64.40;;;;;;4964462;28;20208;-69
2022/04/29 09:33:05;;;;;;;11.55;8.32;;;19.70;63.80;;;;;;4966702;28;20580;-69
2022/04/29 09:35:37;;;;;;;15.27;8.60;;;19.50;64.60;;;;;;4968497;28;20200;-70
2022/04/29 09:40:49;;;;;;;8.63;6.10;;;19.20;63.50;;;;;;4968172;28;20247;-69
2022/04/29 09:43:17;;;;;;;10.20;6.18;;;19.00;59.80;;;;;;4964587;28;20590;-70
2022/04/29 09:45:44;;;;;;;7.95;6.80;;;18.70;59.30;;;;;;4962182;28;20319;-70
2022/04/29 09:48:11;;;;;;;7.38;6.00;;;18.40;59.30;;;;;;4970879;28;20579;-72
2022/04/29 09:50:48;;;;;;;10.63;6.72;;;18.10;59.50;;;;;;4974237;28;20209;-71
2022/04/29 09:53:20;;;;;;;9.00;6.55;;;17.90;59.80;;;;;;4970853;28;20209;-70
2022/04/29 09:56:07;;;;;;;7.07;5.40;;;17.60;60.20;;;;;;4977610;28;20244;-71
2022/04/29 09:58:35;;;;;;;7.28;5.50;;;17.40;59.70;;;;;;4973041;28;20209;-71
2022/04/29 10:01:04;;;;;;;9.38;5.78;;;17.30;59.80;;;;;;4970443;28;20209;-72
2022/04/29 10:03:31;;;;;;;6.60;5.88;;;17.10;59.50;;;;;;4971032;28;20208;-70
2022/04/29 10:06:00;;;;;;;7.97;6.70;;;17.00;59.90;;;;;;4969078;28;20701;-71
2022/04/29 10:08:28;;;;;;;8.57;6.72;;;17.00;60.30;;;;;;4975908;28;20232;-70
2022/04/29 10:10:57;;;;;;;9.90;6.53;;;17.10;60.80;;;;;;4970809;28;20212;-70
2022/04/29 10:13:29;;;;;;;9.85;6.38;;;17.20;61.20;;;;;;4968077;28;20204;-71
2022/04/29 10:15:58;;;;;;;9.20;6.03;;;17.30;62.30;;;;;;4969373;28;20205;-72
2022/04/29 10:21:18;;;;;;;10.07;6.68;;;17.70;63.00;;;;;;4965264;28;20232;-70
2022/04/29 10:23:48;;;;;;;12.70;6.60;;;17.90;62.60;;;;;;4971359;28;20239;-72
2022/04/29 10:26:17;;;;;;;10.52;7.32;;;18.10;62.00;;;;;;4977725;28;20252;-70
2022/04/29 10:28:45;;;;;;;11.25;7.78;;;18.40;61.90;;;;;;4958311;28;20213;-70
2022/04/29 10:31:20;;;;;;;10.27;7.07;;;18.60;61.70;;;;;;4967930;28;20222;-71
2022/04/29 10:33:47;;;;;;;10.32;6.75;;;19.00;61.20;;;;;;4957062;28;20247;-67
2022/04/29 10:36:16;;;;;;;10.90;7.13;;;19.40;60.10;;;;;;4958955;28;20206;-68
2022/04/29 10:38:46;;;;;;;12.55;7.53;;;19.80;60.10;;;;;;4963639;28;20217;-68
2022/04/29 10:41:18;;;;;;;13.73;7.90;;;20.30;59.80;;;;;;4967175;28;20255;-68
2022/04/29 10:43:47;;;;;;;10.05;6.72;;;20.60;58.20;;;;;;4961054;28;20236;-68
2022/04/29 10:46:30;;;;;;;9.23;6.07;;;20.80;57.10;;;;;;4960240;28;20317;-69
2022/04/29 10:48:58;;;;;;;9.77;6.03;;;21.00;56.90;;;;;;4961638;28;20237;-72
2022/04/29 10:51:46;;;;;;;8.38;5.35;;;21.20;55.70;;;;;;4962110;28;20232;-68
2022/04/29 10:54:13;;;;;;;6.85;5.25;;;21.40;54.10;;;;;;4965593;28;20237;-70
2022/04/29 10:56:40;;;;;;;10.52;5.55;;;21.60;53.60;;;;;;4964806;28;20264;-66
2022/04/29 10:59:22;;;;;;;6.07;5.15;;;21.70;53.00;;;;;;4964749;28;20201;-65
2022/04/29 11:02:04;;;;;;;7.07;5.60;;;21.60;52.60;;;;;;4974596;28;20224;-68
2022/04/29 11:04:46;;;;;;;8.27;5.30;;;21.40;52.60;;;;;;4959877;28;20213;-70
2022/04/29 11:07:42;;;;;;;5.63;5.03;;;21.30;52.50;;;;;;4961750;28;20288;-66
2022/04/29 11:10:10;;;;;;;9.95;6.22;;;21.10;52.30;;;;;;4971901;28;20228;-67
2022/04/29 11:12:39;;;;;;;10.73;5.90;;;21.10;52.30;;;;;;4970384;28;20204;-68
2022/04/29 11:15:11;;;;;;;9.07;6.65;;;20.90;52.00;;;;;;4964682;28;20216;-66
2022/04/29 11:17:42;;;;;;;7.47;5.15;;;20.50;51.90;;;;;;4963469;28;20239;-68
2022/04/29 11:20:21;;;;;;;7.25;5.00;;;20.00;52.20;;;;;;4961406;28;20207;-70
2022/04/29 11:26:04;;;;;;;8.88;5.03;;;19.50;52.90;;;;;;4971705;28;20708;-71
2022/04/29 11:28:31;;;;;;;7.47;5.57;;;19.10;53.40;;;;;;4967644;28;20292;-71
2022/04/29 11:31:03;;;;;;;7.85;5.25;;;18.90;53.80;;;;;;4963241;28;20218;-71
2022/04/29 11:33:31;;;;;;;6.75;5.05;;;18.70;54.10;;;;;;4974797;28;20212;-71
2022/04/29 11:36:04;;;;;;;8.57;5.10;;;18.60;54.50;;;;;;4976851;28;20304;-70
2022/04/29 11:38:33;;;;;;;7.60;4.78;;;18.60;54.80;;;;;;4965966;28;20244;-69
2022/04/29 11:41:03;;;;;;;7.25;5.38;;;18.60;54.70;;;;;;4957336;28;20231;-70
2022/04/29 11:43:30;;;;;;;6.80;4.57;;;18.70;54.60;;;;;;4970055;28;20209;-72
2022/04/29 11:46:05;;;;;;;8.57;4.40;;;18.70;54.50;;;;;;4957960;28;20288;-69
2022/04/29 11:48:35;;;;;;;7.75;4.50;;;18.60;53.30;;;;;;4972958;28;20637;-71
2022/04/29 11:51:04;;;;;;;8.10;4.63;;;18.50;53.20;;;;;;4976130;28;20228;-71
2022/04/29 11:53:31;;;;;;;7.32;4.85;;;18.50;53.50;;;;;;4960640;28;20276;-71
2022/04/29 11:55:59;;;;;;;5.82;4.70;;;18.60;53.60;;;;;;4960240;28;20210;-70
2022/04/29 11:58:30;;;;;;;5.25;4.38;;;18.80;53.70;;;;;;4957318;28;20290;-70
2022/04/29 12:00:57;;;;;;;5.32;4.28;;;19.10;53.20;;;;;;4963435;28;20216;-67
2022/04/29 12:03:25;;;;;;;5.03;4.53;;;19.20;52.70;;;;;;4963569;28;20256;-67
2022/04/29 12:05:53;;;;;;;6.05;4.75;;;19.20;52.80;;;;;;4966142;28;20687;-68
2022/04/29 12:08:20;;;;;;;8.55;4.85;;;19.30;53.70;;;;;;4961956;28;20213;-68
2022/04/29 12:10:48;;;;;;;5.53;4.00;;;19.40;53.50;;;;;;4968325;28;20445;-69
2022/04/29 12:13:18;;;;;;;11.73;6.90;;;19.60;52.90;;;;;;4962063;28;20295;-69
2022/04/29 12:15:46;;;;;;;6.05;4.10;;;19.60;52.20;;;;;;4968086;28;20201;-69
2022/04/29 12:18:14;;;;;;;6.90;4.10;;;19.60;52.20;;;;;;4970548;28;20300;-68
2022/04/29 12:20:42;;;;;;;6.07;4.22;;;19.70;52.30;;;;;;4963974;28;20259;-68
2022/04/29 12:23:13;;;;;;;3.97;3.50;;;19.90;52.90;;;;;;4966746;28;20205;-68
2022/04/29 12:25:42;;;;;;;4.70;3.05;;;20.20;52.80;;;;;;4968768;28;20684;-67
2022/04/29 12:28:12;;;;;;;4.32;3.70;;;20.60;51.80;;;;;;4970242;28;20785;-68
2022/04/29 12:36:13;;;;;;;7.93;6.07;;;21.10;53.10;;;;;;4969428;28;20212;-69
2022/04/29 12:38:42;;;;;;;7.00;6.28;;;21.10;53.50;;;;;;4967616;28;20233;-68
2022/04/29 12:41:22;;;;;;;7.60;5.90;;;20.90;55.20;;;;;;4973022;28;20233;-69
2022/04/29 12:43:49;;;;;;;9.32;5.80;;;20.50;56.00;;;;;;4967639;28;20667;-69
2022/04/29 12:46:17;;;;;;;9.00;5.80;;;20.00;56.80;;;;;;4967985;28;20237;-69
2022/04/29 12:48:49;;;;;;;8.63;6.35;;;19.70;57.70;;;;;;4973658;28;20361;-69
2022/04/29 12:51:26;;;;;;;8.25;6.40;;;19.40;58.10;;;;;;4963855;28;20303;-68
2022/04/29 12:53:54;;;;;;;11.32;7.13;;;19.10;58.30;;;;;;4960650;28;20340;-68
2022/04/29 12:56:26;;;;;;;8.77;5.68;;;19.00;59.60;;;;;;4959413;28;20269;-69
2022/04/29 12:58:53;;;;;;;9.63;6.38;;;18.80;61.10;;;;;;4957726;28;20680;-68
2022/04/29 13:01:20;;;;;;;7.40;6.30;;;18.60;61.80;;;;;;4958182;28;20571;-67
2022/04/29 13:03:52;;;;;;;7.80;6.28;;;18.40;62.50;;;;;;4962352;28;20670;-69
2022/04/29 13:06:20;;;;;;;10.07;6.35;;;18.30;63.20;;;;;;4961595;28;20221;-68
2022/04/29 13:08:52;;;;;;;9.80;6.55;;;18.10;63.90;;;;;;4958976;28;20268;-67
2022/04/29 13:11:20;;;;;;;8.75;7.38;;;18.00;64.80;;;;;;4961131;28;20208;-69
2022/04/29 13:13:48;;;;;;;9.00;6.35;;;17.80;65.00;;;;;;4960326;28;20244;-68
2022/04/29 13:16:15;;;;;;;9.50;6.15;;;17.70;65.40;;;;;;4960598;28;20287;-69
2022/04/29 13:18:42;;;;;;;8.65;6.43;;;17.50;64.90;;;;;;4959782;28;20210;-67
2022/04/29 13:21:09;;;;;;;11.18;6.43;;;17.50;65.20;;;;;;4957793;28;20237;-67
2022/04/29 13:23:37;;;;;;;10.18;6.15;;;17.50;64.60;;;;;;4964861;28;20300;-69
2022/04/29 13:26:05;;;;;;;9.68;6.90;;;17.50;64.10;;;;;;4976288;28;20645;-68
2022/04/29 13:28:46;;;;;;;9.05;6.07;;;17.60;63.70;;;;;;4975021;28;20232;-70